Airfield :
LOGIN :

Register | Disclaimer

   EN    FR    IT 

 










Legend :    VFR   Marginal VFR   IFR   Intensive IFR   Very Intensive IFR
Visi :
Ceiling :
>= 8 km
>= 3000ft
5 to 8 km
1000 to 3000 ft
1500m to 5 km
500 to 1000 ft
800 to 1500m
200 to 500 ft
< 800m
< 200 ft
Symbols :   Thunderstorms  Fog  Heavy snow  Heavy precipitations  Wind > 20 kt
SIGMETs :     Misc.  Thunderstorms  Icing  Turbulence  Mountain Waves  Volcanic Ashes






- Airport Elevation : 586 ft
- IATA code : IEV


UKKK - Zhuliany

CURRENT METAR :
  • 281530Z 04003MPS 9999 SCT043 11/07 Q1027 R08/CLRD70 NOSIG

EXPIRED METARs :
  • 281500Z 03004MPS 9999 SCT033 11/07 Q1027 R08/70D NOSIG
  • 281430Z 01004MPS 9999 SCT026 12/08 Q1027 R08/70D NOSIG
  • 281400Z 04003MPS 010V070 9999 SCT027 12/07 Q1026 R08/CLRD70 NOSIG
  • 281330Z 05004MPS 9999 SCT043 12/07 Q1026 R08/CLRD70 NOSIG
  • 281300Z 04003MPS 9999 SCT026 13/08 Q1026 R08/70D NOSIG

TAF TAF UKKK
Valid from the 28 at 12:00 until the 29 at 12:00 UTC


281103Z 2812/2912 05003G08MPS 9999 BKN010 TX13/2912Z TN03/2903Z
TEMPO 2822/2906 0300 FG VV002
BECMG 2906/2908 08004G09MPS



MET'MAP, your aeronautical weather chart ! - Copyright ORBIFLY December 2007 - Disclaimer

ORBIFLY MET'MAP TEAM :

Programming & Development : Alexandra Zaïnal
Concept & original design : Baudouin d'Aumeries
Assistance for programming : Marc-Olivier Méhu
Technical & hardware support : Manuel Goepfert

Contact : metmap@orbifly.com




SOURCES & CREDITS :

   NOAA